Airfield :
LOGIN :

Register | Disclaimer

   EN    FR    IT 

 










Legend :    VFR   Marginal VFR   IFR   Intensive IFR   Very Intensive IFR
Visi :
Ceiling :
>= 8 km
>= 3000ft
5 to 8 km
1000 to 3000 ft
1500m to 5 km
500 to 1000 ft
800 to 1500m
200 to 500 ft
< 800m
< 200 ft
Symbols :   Thunderstorms  Fog  Heavy snow  Heavy precipitations  Wind > 20 kt
SIGMETs :     Misc.  Thunderstorms  Icing  Turbulence  Mountain Waves  Volcanic Ashes






- Airport Elevation : 33 ft
- IATA code : PLQ


EYPA - Palanga

CURRENT METAR :
  • 180850Z 04009KT CAVOK 18/03 Q1022

EXPIRED METARs :
  • 180820Z 04009KT 010V070 CAVOK 16/03 Q1022
  • 180750Z 05009KT 020V080 CAVOK 15/03 Q1022
  • 180720Z 07006KT CAVOK 14/03 Q1022
  • 180650Z 08007KT CAVOK 13/03 Q1022
  • 180620Z 08009KT CAVOK 11/02 Q1022

TAF TAF EYPA
Valid from the 18 at 06:00 until the 19 at 06:00 UTC


180500Z 1806/1906 07010KT CAVOK



MET'MAP, your aeronautical weather chart ! - Copyright ORBIFLY December 2007 - Disclaimer

ORBIFLY MET'MAP TEAM :

Programming & Development : Alexandra Zaïnal
Concept & original design : Baudouin d'Aumeries
Assistance for programming : Marc-Olivier Méhu
Technical & hardware support : Manuel Goepfert

Contact : metmap@orbifly.com




SOURCES & CREDITS :

   NOAA